createdAt,value
2018-08-11T00:00:49.987Z,5.30
2018-08-11T00:03:18.499Z,5.00
2018-08-11T00:05:47.000Z,5.27
2018-08-11T00:08:15.498Z,4.90
2018-08-11T00:10:44.014Z,4.90
2018-08-11T00:13:12.784Z,5.23
2018-08-11T00:15:41.270Z,4.63
2018-08-11T00:18:09.785Z,4.80
2018-08-11T00:20:38.291Z,4.63
2018-08-11T00:23:06.784Z,4.90
2018-08-11T00:25:35.295Z,4.87
2018-08-11T00:28:03.791Z,4.80
2018-08-11T00:30:32.339Z,5.07
2018-08-11T00:33:00.839Z,5.00
2018-08-11T00:35:29.335Z,4.70
2018-08-11T00:37:57.831Z,4.87
2018-08-11T00:40:26.355Z,4.67
2018-08-11T00:42:54.864Z,4.40
2018-08-11T00:45:23.611Z,4.50
2018-08-11T00:47:52.131Z,4.60
2018-08-11T00:50:23.147Z,4.93
2018-08-11T00:52:51.671Z,4.53
2018-08-11T00:55:20.182Z,4.70
2018-08-11T00:57:48.718Z,4.83
2018-08-11T01:00:18.702Z,4.90
2018-08-11T01:02:47.636Z,4.47
2018-08-11T01:05:18.751Z,4.67
2018-08-11T01:07:47.759Z,5.07
2018-08-11T01:10:17.071Z,4.30
2018-08-11T01:12:46.312Z,4.57
2018-08-11T01:15:16.807Z,4.53
2018-08-11T01:17:46.035Z,4.47
2018-08-11T01:20:14.875Z,4.93
2018-08-11T01:22:44.000Z,4.73
2018-08-11T01:25:13.167Z,5.10
2018-08-11T01:27:41.727Z,5.07
2018-08-11T01:30:12.035Z,4.60
2018-08-11T01:32:40.551Z,4.30
2018-08-11T01:35:10.057Z,4.57
2018-08-11T01:37:39.664Z,4.87
2018-08-11T01:40:09.902Z,4.57
2018-08-11T01:42:38.918Z,4.67
2018-08-11T01:45:08.531Z,4.53
2018-08-11T01:47:37.127Z,4.47
2018-08-11T01:50:07.171Z,5.17
2018-08-11T01:52:35.678Z,4.77
2018-08-11T01:55:04.768Z,4.43
2018-08-11T01:57:33.367Z,4.83
2018-08-11T02:00:01.872Z,4.70
2018-08-11T02:02:30.547Z,4.70
2018-08-11T02:04:59.076Z,4.77
2018-08-11T02:07:27.571Z,4.40
2018-08-11T02:09:56.094Z,4.10
2018-08-11T02:12:24.603Z,4.77
2018-08-11T02:14:53.110Z,4.07
2018-08-11T02:17:21.608Z,4.00
2018-08-11T02:19:50.103Z,4.53
2018-08-11T02:22:18.601Z,4.13
2018-08-11T02:24:47.126Z,4.17
2018-08-11T02:27:15.615Z,4.43
2018-08-11T02:29:44.112Z,4.03
2018-08-11T02:32:12.606Z,4.40
2018-08-11T02:34:41.119Z,3.77
2018-08-11T02:37:09.626Z,4.03
2018-08-11T02:39:38.123Z,4.20
2018-08-11T02:42:06.646Z,3.77
2018-08-11T02:44:35.171Z,4.13
2018-08-11T02:47:03.668Z,3.90
2018-08-11T02:49:32.171Z,3.83
2018-08-11T02:52:00.952Z,4.03
2018-08-11T02:54:29.465Z,3.90
2018-08-11T02:56:57.963Z,4.07
2018-08-11T02:59:26.471Z,4.20
2018-08-11T03:01:55.458Z,4.20
2018-08-11T03:04:24.904Z,3.67
2018-08-11T03:06:53.805Z,3.87
2018-08-11T03:09:22.316Z,3.87
2018-08-11T03:11:50.820Z,4.00
2018-08-11T03:14:19.624Z,3.30
2018-08-11T03:16:48.142Z,3.80
2018-08-11T03:19:16.651Z,3.57
2018-08-11T03:21:45.159Z,3.60
2018-08-11T03:24:13.656Z,3.63
2018-08-11T03:26:42.152Z,3.83
2018-08-11T03:29:10.671Z,3.70
2018-08-11T03:31:39.163Z,3.97
2018-08-11T03:34:07.659Z,3.60
2018-08-11T03:36:36.171Z,3.80
2018-08-11T03:39:07.618Z,3.63
2018-08-11T03:41:36.146Z,3.80
2018-08-11T03:44:04.656Z,3.80
2018-08-11T03:46:33.181Z,3.80
2018-08-11T03:49:01.696Z,3.57
2018-08-11T03:51:30.195Z,3.73
2018-08-11T03:53:58.691Z,3.93
2018-08-11T03:56:27.211Z,3.70
2018-08-11T03:58:55.739Z,3.70
2018-08-11T04:01:24.239Z,4.03
2018-08-11T04:03:52.767Z,3.70
2018-08-11T04:06:21.406Z,3.70
2018-08-11T04:08:49.903Z,3.80
2018-08-11T04:11:18.467Z,3.87
2018-08-11T04:13:47.159Z,3.73
2018-08-11T04:16:15.667Z,3.57
2018-08-11T04:18:44.522Z,3.77
2018-08-11T04:21:13.012Z,3.80
2018-08-11T04:23:41.507Z,3.83
2018-08-11T04:26:09.999Z,4.03
2018-08-11T04:28:44.839Z,4.47
2018-08-11T04:31:13.334Z,3.43
2018-08-11T04:33:41.820Z,3.77
2018-08-11T04:36:10.340Z,3.60
2018-08-11T04:38:38.839Z,3.70
2018-08-11T04:41:07.341Z,4.10
2018-08-11T04:43:36.011Z,3.33
2018-08-11T04:46:04.511Z,3.90
2018-08-11T04:48:33.022Z,3.47
2018-08-11T04:51:01.547Z,3.37
2018-08-11T04:53:30.053Z,3.50
2018-08-11T04:55:58.552Z,3.87
2018-08-11T04:58:27.047Z,3.40
2018-08-11T05:00:55.547Z,2.80
2018-08-11T05:03:24.067Z,3.40
2018-08-11T05:05:52.563Z,3.27
2018-08-11T05:08:21.067Z,3.30
2018-08-11T05:10:49.564Z,3.30
2018-08-11T05:13:18.065Z,3.70
2018-08-11T05:15:46.640Z,3.30
2018-08-11T05:18:15.139Z,2.77
2018-08-11T05:20:43.641Z,3.23
2018-08-11T05:23:12.160Z,3.60
2018-08-11T05:25:40.678Z,3.03
2018-08-11T05:28:09.175Z,3.43
2018-08-11T05:30:37.672Z,3.57
2018-08-11T05:33:06.293Z,3.60
2018-08-11T05:35:34.775Z,2.87
2018-08-11T05:38:03.284Z,2.90
2018-08-11T05:40:31.794Z,2.93
2018-08-11T05:43:00.295Z,3.10
2018-08-11T05:45:28.791Z,3.37
2018-08-11T05:47:57.279Z,2.80
2018-08-11T05:50:25.779Z,2.90
2018-08-11T05:52:54.271Z,3.13
2018-08-11T05:55:22.764Z,3.13
2018-08-11T05:57:51.332Z,2.87
2018-08-11T06:00:19.846Z,3.27
2018-08-11T06:02:48.375Z,3.00
2018-08-11T06:05:16.867Z,3.00
2018-08-11T06:07:45.384Z,3.23
2018-08-11T06:10:13.879Z,3.20
2018-08-11T06:12:42.375Z,3.47
2018-08-11T06:15:10.874Z,5.00
2018-08-11T06:17:39.378Z,4.20
2018-08-11T06:20:09.065Z,4.13
2018-08-11T06:22:38.522Z,3.97
2018-08-11T06:25:09.041Z,4.13
2018-08-11T06:27:37.538Z,4.63
2018-08-11T06:30:07.099Z,4.40
2018-08-11T06:32:35.603Z,4.10
2018-08-11T06:35:04.679Z,4.43
2018-08-11T06:37:33.190Z,3.97
2018-08-11T06:40:01.687Z,4.20
2018-08-11T06:42:30.204Z,4.67
2018-08-11T06:44:58.707Z,4.27
2018-08-11T06:47:27.195Z,4.77
2018-08-11T06:49:55.698Z,4.27
2018-08-11T06:52:24.191Z,4.23
2018-08-11T06:54:52.689Z,4.20
2018-08-11T06:57:21.192Z,4.30
2018-08-11T06:59:49.711Z,4.77
2018-08-11T07:02:18.212Z,4.20
2018-08-11T07:04:46.711Z,4.07
2018-08-11T07:07:15.219Z,4.50
2018-08-11T07:09:43.739Z,4.80
2018-08-11T07:12:12.246Z,4.70
2018-08-11T07:14:40.748Z,4.50
2018-08-11T07:17:09.243Z,4.70
2018-08-11T07:19:37.743Z,4.70
2018-08-11T07:22:06.505Z,4.80
2018-08-11T07:24:35.324Z,4.70
2018-08-11T07:27:03.827Z,5.17
2018-08-11T07:29:32.348Z,5.00
2018-08-11T07:32:01.167Z,5.03
2018-08-11T07:34:29.688Z,4.40
2018-08-11T07:36:58.208Z,4.83
2018-08-11T07:39:26.757Z,4.60
2018-08-11T07:41:55.287Z,4.60
2018-08-11T07:44:23.787Z,5.00
2018-08-11T07:46:52.287Z,4.90
2018-08-11T07:49:20.778Z,5.10
2018-08-11T07:51:49.278Z,4.93
2018-08-11T07:54:17.799Z,4.80
2018-08-11T07:56:46.291Z,4.60
2018-08-11T07:59:15.064Z,5.33
2018-08-11T08:01:43.554Z,4.93
2018-08-11T08:04:12.143Z,4.90
2018-08-11T08:06:40.651Z,4.97
2018-08-11T08:09:11.671Z,4.70
2018-08-11T08:11:40.655Z,4.73
2018-08-11T08:14:09.510Z,4.63
2018-08-11T08:16:38.019Z,4.70
2018-08-11T08:19:06.528Z,4.40
2018-08-11T08:21:35.259Z,4.20
2018-08-11T08:24:03.747Z,4.67
2018-08-11T08:26:32.399Z,5.03
2018-08-11T08:29:00.835Z,4.90
2018-08-11T08:31:29.329Z,5.20
2018-08-11T08:33:57.849Z,4.70
2018-08-11T08:36:26.347Z,4.37
2018-08-11T08:38:54.867Z,4.77
2018-08-11T08:41:23.359Z,4.80
2018-08-11T08:43:52.265Z,4.30
2018-08-11T08:46:21.019Z,4.23
2018-08-11T08:48:49.523Z,4.30
2018-08-11T08:51:18.036Z,3.97
2018-08-11T08:53:47.074Z,4.40
2018-08-11T08:56:15.758Z,3.73
2018-08-11T08:58:44.313Z,4.13
2018-08-11T09:01:12.788Z,3.80
2018-08-11T09:03:41.296Z,3.70
2018-08-11T09:06:09.807Z,3.57
2018-08-11T09:08:38.304Z,3.67
2018-08-11T09:11:07.014Z,3.50
2018-08-11T09:13:35.519Z,3.80
2018-08-11T09:16:04.023Z,3.50
2018-08-11T09:18:33.020Z,3.30
2018-08-11T09:21:01.517Z,3.37
2018-08-11T09:23:30.087Z,3.10
2018-08-11T09:25:58.568Z,3.37
2018-08-11T09:28:27.068Z,3.53
2018-08-11T09:30:55.555Z,3.50
2018-08-11T09:33:24.063Z,3.00
2018-08-11T09:35:52.574Z,3.30
2018-08-11T09:38:21.111Z,3.23
2018-08-11T09:40:49.749Z,3.40
2018-08-11T09:43:18.264Z,3.17
2018-08-11T09:45:46.868Z,3.30
2018-08-11T09:48:15.303Z,2.83
2018-08-11T09:50:43.831Z,3.30
2018-08-11T09:53:12.341Z,3.00
2018-08-11T09:55:40.841Z,2.90
2018-08-11T09:58:09.330Z,3.23
2018-08-11T10:00:43.055Z,3.50
2018-08-11T10:03:11.564Z,2.97
2018-08-11T10:05:40.069Z,3.10
2018-08-11T10:08:08.956Z,2.93
2018-08-11T10:10:37.535Z,3.00
2018-08-11T10:13:06.239Z,3.13
2018-08-11T10:15:34.755Z,3.17
2018-08-11T10:18:03.297Z,3.33
2018-08-11T10:20:31.806Z,3.17
2018-08-11T10:23:00.307Z,2.87
2018-08-11T10:25:28.822Z,3.10
2018-08-11T10:27:57.331Z,3.07
2018-08-11T10:30:25.836Z,2.93
2018-08-11T10:32:54.802Z,3.03
2018-08-11T10:35:23.479Z,3.07
2018-08-11T10:37:51.983Z,3.03
2018-08-11T10:40:20.507Z,2.90
2018-08-11T10:42:48.999Z,3.10
2018-08-11T10:45:17.518Z,2.90
2018-08-11T10:47:46.033Z,3.10
2018-08-11T10:50:14.543Z,3.43
2018-08-11T10:52:43.036Z,3.10
2018-08-11T10:55:11.573Z,3.27
2018-08-11T10:57:40.085Z,3.13
2018-08-11T11:00:08.580Z,3.20
2018-08-11T11:02:38.715Z,2.80
2018-08-11T11:05:08.278Z,3.03
2018-08-11T11:07:36.790Z,3.00
2018-08-11T11:10:05.927Z,3.03
2018-08-11T11:12:34.439Z,3.30
2018-08-11T11:15:02.951Z,2.87
2018-08-11T11:17:31.446Z,3.07
2018-08-11T11:19:59.947Z,2.80
2018-08-11T11:22:28.479Z,3.10
2018-08-11T11:24:57.195Z,2.70
2018-08-11T11:27:25.691Z,2.80
2018-08-11T11:29:54.186Z,2.77
2018-08-11T11:32:22.695Z,2.60
2018-08-11T11:34:51.187Z,3.10
2018-08-11T11:37:19.756Z,2.80
2018-08-11T11:39:48.215Z,2.83
2018-08-11T11:42:16.771Z,2.97
2018-08-11T11:44:45.269Z,3.27
2018-08-11T11:47:13.767Z,2.90
2018-08-11T11:49:42.275Z,2.73
2018-08-11T11:52:10.775Z,2.90
2018-08-11T11:54:39.315Z,2.97
2018-08-11T11:57:08.568Z,2.80
2018-08-11T11:59:37.156Z,2.87
2018-08-11T12:02:06.106Z,2.57
2018-08-11T12:04:34.545Z,3.07
2018-08-11T12:07:03.046Z,2.63
2018-08-11T12:09:31.572Z,2.67
2018-08-11T12:12:00.076Z,3.00
2018-08-11T12:14:28.583Z,3.30
2018-08-11T12:16:57.089Z,2.90
2018-08-11T12:19:25.635Z,2.80
2018-08-11T12:21:54.107Z,2.70
2018-08-11T12:24:22.623Z,2.90
2018-08-11T12:26:51.152Z,2.77
2018-08-11T12:29:19.641Z,2.60
2018-08-11T12:31:48.148Z,2.60
2018-08-11T12:36:41.997Z,2.80
2018-08-11T12:39:11.307Z,2.63
2018-08-11T12:41:40.412Z,2.70
2018-08-11T12:44:09.627Z,2.80
2018-08-11T12:46:38.127Z,2.80
2018-08-11T12:49:06.626Z,2.57
2018-08-11T12:51:35.658Z,2.73
2018-08-11T12:54:04.174Z,2.50
2018-08-11T12:56:32.728Z,2.63
2018-08-11T12:59:01.404Z,2.47
2018-08-11T13:01:30.298Z,2.50
2018-08-11T13:03:59.083Z,2.53
2018-08-11T13:06:27.563Z,2.80
2018-08-11T13:08:56.070Z,2.67
2018-08-11T13:11:24.567Z,2.40
2018-08-11T13:13:53.068Z,2.70
2018-08-11T13:16:21.560Z,2.63
2018-08-11T13:18:50.076Z,2.77
2018-08-11T13:21:18.579Z,2.63
2018-08-11T13:23:47.076Z,2.73
2018-08-11T13:26:15.563Z,2.47
2018-08-11T13:28:44.079Z,2.43
2018-08-11T13:31:12.574Z,2.87
2018-08-11T13:33:41.443Z,2.30
2018-08-11T13:36:09.948Z,2.10
2018-08-11T13:38:38.499Z,2.40
2018-08-11T13:41:06.970Z,2.77
2018-08-11T13:43:35.467Z,2.27
2018-08-11T13:46:03.967Z,2.20
2018-08-11T13:48:32.503Z,2.73
2018-08-11T13:51:01.002Z,2.40
2018-08-11T13:53:29.515Z,2.60
2018-08-11T13:55:58.031Z,2.70
2018-08-11T13:58:26.532Z,2.60
2018-08-11T14:00:55.059Z,2.47
2018-08-11T14:03:23.560Z,2.70
2018-08-11T14:05:52.052Z,2.67
2018-08-11T14:08:20.920Z,2.30
2018-08-11T14:10:49.420Z,2.53
2018-08-11T14:13:17.922Z,2.80
2018-08-11T14:15:46.419Z,2.33
2018-08-11T14:18:14.927Z,2.27
2018-08-11T14:20:43.719Z,2.47
2018-08-11T14:23:12.229Z,2.30
2018-08-11T14:25:40.763Z,1.83
2018-08-11T14:28:09.248Z,2.50
2018-08-11T14:30:37.759Z,2.50
2018-08-11T14:33:06.285Z,2.50
2018-08-11T14:35:34.783Z,2.43
2018-08-11T14:38:03.292Z,2.20
2018-08-11T14:40:31.790Z,2.07
2018-08-11T14:43:00.288Z,2.30
2018-08-11T14:45:28.791Z,2.00
2018-08-11T14:47:57.298Z,2.43
2018-08-11T14:50:25.818Z,2.53
2018-08-11T14:52:54.331Z,2.50
2018-08-11T14:55:23.172Z,2.33
2018-08-11T14:57:51.683Z,1.83
2018-08-11T15:00:20.183Z,2.23
2018-08-11T15:02:48.683Z,2.33
2018-08-11T15:05:17.204Z,2.50
2018-08-11T15:07:45.707Z,2.30
2018-08-11T15:10:14.280Z,2.40
2018-08-11T15:12:42.732Z,2.30
2018-08-11T15:15:11.735Z,2.10
2018-08-11T15:17:41.252Z,2.10
2018-08-11T15:20:10.340Z,1.90
2018-08-11T15:22:39.638Z,2.50
2018-08-11T15:25:08.928Z,2.40
2018-08-11T15:27:37.456Z,2.70
2018-08-11T15:30:08.404Z,2.57
2018-08-11T15:32:37.131Z,2.80
2018-08-11T15:35:06.132Z,2.27
2018-08-11T15:37:34.811Z,2.50
2018-08-11T15:40:03.810Z,2.37
2018-08-11T15:42:32.303Z,2.10
2018-08-11T15:45:00.804Z,2.30
2018-08-11T15:47:29.306Z,2.50
2018-08-11T15:49:57.855Z,2.53
2018-08-11T15:52:26.617Z,2.00
2018-08-11T15:54:55.104Z,2.20
2018-08-11T15:57:23.600Z,2.50
2018-08-11T15:59:52.107Z,2.30
2018-08-11T16:02:20.744Z,2.10
2018-08-11T16:04:49.431Z,2.30
2018-08-11T16:07:17.943Z,2.63
2018-08-11T16:09:46.439Z,2.10
2018-08-11T16:13:17.843Z,2.47
2018-08-11T16:15:46.340Z,2.13
2018-08-11T16:18:14.879Z,2.37
2018-08-11T16:20:43.371Z,2.23
2018-08-11T16:23:11.864Z,2.60
2018-08-11T16:25:40.375Z,2.30
2018-08-11T16:28:09.062Z,2.10
2018-08-11T16:30:37.595Z,2.10
2018-08-11T16:33:06.419Z,2.00
2018-08-11T16:35:34.923Z,2.30
2018-08-11T16:38:03.428Z,1.83
2018-08-11T16:40:31.931Z,2.43
2018-08-11T16:43:00.428Z,2.50
2018-08-11T16:45:28.927Z,1.87
2018-08-11T16:47:57.536Z,2.30
2018-08-11T16:50:25.989Z,1.97
2018-08-11T16:52:54.488Z,2.27
2018-08-11T16:55:22.988Z,2.57
2018-08-11T16:57:51.508Z,2.20
2018-08-11T17:00:20.003Z,2.10
2018-08-11T17:02:48.503Z,2.07
2018-08-11T17:05:17.015Z,2.30
2018-08-11T17:07:45.528Z,2.10
2018-08-11T17:10:14.015Z,2.23
2018-08-11T17:12:42.526Z,2.27
2018-08-11T17:15:11.305Z,2.10
2018-08-11T17:17:39.815Z,2.00
2018-08-11T17:20:08.667Z,2.17
2018-08-11T17:22:37.363Z,2.30
2018-08-11T17:25:05.947Z,2.00
2018-08-11T17:27:35.035Z,2.00
2018-08-11T17:30:03.633Z,2.00
2018-08-11T17:32:32.196Z,2.23
2018-08-11T17:35:00.652Z,2.10
2018-08-11T17:37:29.164Z,2.13
2018-08-11T17:39:57.651Z,2.20
2018-08-11T17:42:26.169Z,2.23
2018-08-11T17:44:54.670Z,2.07
2018-08-11T17:47:23.180Z,2.10
2018-08-11T17:49:51.675Z,2.40
2018-08-11T17:52:20.179Z,2.20
2018-08-11T17:54:48.720Z,2.30
2018-08-11T17:57:17.206Z,2.50
2018-08-11T17:59:45.723Z,2.07
2018-08-11T18:02:14.232Z,2.20
2018-08-11T18:04:42.735Z,2.33
2018-08-11T18:07:11.230Z,2.00
2018-08-11T18:09:39.723Z,2.37
2018-08-11T18:12:08.364Z,2.07
2018-08-11T18:14:36.891Z,2.30
2018-08-11T18:17:05.408Z,2.20
2018-08-11T18:19:33.957Z,2.20
2018-08-11T18:22:02.439Z,2.23
2018-08-11T18:24:30.940Z,2.10
2018-08-11T18:26:59.432Z,2.23
2018-08-11T18:29:28.187Z,2.30
2018-08-11T18:31:57.173Z,1.90
2018-08-11T18:34:25.674Z,2.17
2018-08-11T18:36:54.183Z,2.07
2018-08-11T18:39:22.691Z,1.70
2018-08-11T18:41:51.196Z,2.30
2018-08-11T18:44:19.725Z,1.93
2018-08-11T18:46:48.223Z,1.80
2018-08-11T18:49:16.733Z,2.03
2018-08-11T18:51:45.228Z,2.27
2018-08-11T18:54:13.743Z,2.20
2018-08-11T18:56:42.241Z,2.03
2018-08-11T18:59:11.176Z,2.13
2018-08-11T19:01:39.680Z,2.37
2018-08-11T19:04:08.315Z,2.20
2018-08-11T19:06:36.849Z,2.03
2018-08-11T19:09:09.431Z,2.20
2018-08-11T19:11:38.307Z,2.30
2018-08-11T19:14:07.537Z,1.80
2018-08-11T19:16:36.611Z,2.03
2018-08-11T19:19:05.300Z,2.27
2018-08-11T19:21:33.811Z,2.20
2018-08-11T19:24:02.316Z,1.87
2018-08-11T19:26:30.836Z,2.00
2018-08-11T19:28:59.341Z,2.23
2018-08-11T19:31:27.843Z,2.17
2018-08-11T19:33:56.688Z,2.07
2018-08-11T19:36:25.209Z,2.20
2018-08-11T19:38:53.778Z,2.13
2018-08-11T19:41:22.283Z,1.97
2018-08-11T19:43:50.783Z,2.03
2018-08-11T19:46:19.315Z,1.83
2018-08-11T19:48:47.962Z,2.10
2018-08-11T19:51:16.467Z,1.97
2018-08-11T19:53:44.971Z,1.90
2018-08-11T19:56:13.509Z,2.10
2018-08-11T19:58:42.018Z,2.20
2018-08-11T20:01:10.507Z,1.90
2018-08-11T20:03:39.023Z,2.17
2018-08-11T20:06:07.530Z,1.93
2018-08-11T20:08:36.023Z,1.80
2018-08-11T20:11:04.538Z,2.30
2018-08-11T20:13:33.035Z,2.00
2018-08-11T20:16:01.530Z,2.03
2018-08-11T20:18:30.177Z,2.43
2018-08-11T20:20:58.687Z,1.80
2018-08-11T20:23:27.195Z,2.20
2018-08-11T20:25:55.696Z,2.20
2018-08-11T20:28:24.204Z,1.80
2018-08-11T20:30:52.710Z,2.17
2018-08-11T20:33:21.222Z,2.00
2018-08-11T20:35:49.719Z,2.10
2018-08-11T20:38:18.593Z,2.07
2018-08-11T20:40:47.123Z,1.97
2018-08-11T20:43:15.628Z,2.00
2018-08-11T20:45:44.136Z,2.00
2018-08-11T20:48:12.638Z,2.10
2018-08-11T20:50:41.155Z,2.00
2018-08-11T20:53:09.652Z,2.00
2018-08-11T20:55:39.083Z,2.03
2018-08-11T20:58:07.576Z,2.00
2018-08-11T21:00:36.186Z,1.77
2018-08-11T21:03:05.135Z,2.00
2018-08-11T21:05:33.636Z,2.20
2018-08-11T21:08:02.138Z,2.13
2018-08-11T21:10:31.079Z,1.90
2018-08-11T21:12:59.592Z,2.30
2018-08-11T21:15:28.179Z,2.07
2018-08-11T21:17:56.650Z,2.50
2018-08-11T21:20:25.149Z,2.03
2018-08-11T21:22:53.666Z,2.47
2018-08-11T21:25:22.171Z,1.97
2018-08-11T21:27:50.675Z,2.10
2018-08-11T21:30:19.175Z,2.30
2018-08-11T21:32:47.680Z,2.27
2018-08-11T21:35:16.184Z,2.10
2018-08-11T21:37:44.687Z,1.90
2018-08-11T21:40:14.834Z,2.00
2018-08-11T21:42:43.983Z,2.20
2018-08-11T21:45:12.791Z,1.90
2018-08-11T21:47:42.130Z,2.20
2018-08-11T21:50:10.893Z,2.20
2018-08-11T21:52:40.087Z,2.20
2018-08-11T21:55:09.383Z,2.30
2018-08-11T21:57:38.411Z,2.00
2018-08-11T22:00:22.077Z,2.30
2018-08-11T22:02:50.567Z,1.90
2018-08-11T22:05:19.075Z,1.90
2018-08-11T22:07:47.922Z,2.30
2018-08-11T22:10:16.431Z,1.70
2018-08-11T22:12:44.931Z,2.00
2018-08-11T22:15:16.820Z,2.17
2018-08-11T22:17:45.344Z,2.10
2018-08-11T22:20:14.368Z,2.10
2018-08-11T22:22:43.663Z,2.23
2018-08-11T22:25:12.971Z,1.80
2018-08-11T22:27:42.251Z,1.97
2018-08-11T22:30:11.223Z,1.90
2018-08-11T22:32:40.035Z,1.93
2018-08-11T22:35:10.059Z,1.80
2018-08-11T22:37:38.590Z,1.90
2018-08-11T22:40:07.910Z,2.20
2018-08-11T22:42:37.439Z,2.20
2018-08-11T22:45:07.721Z,1.87
2018-08-11T22:47:36.701Z,2.23
2018-08-11T22:50:07.344Z,2.00
2018-08-11T22:52:36.482Z,2.10
2018-08-11T22:55:05.477Z,2.30
2018-08-11T22:57:34.180Z,2.43
2018-08-11T23:00:02.716Z,2.10
2018-08-11T23:02:31.222Z,2.10
2018-08-11T23:04:59.726Z,1.90
2018-08-11T23:07:28.223Z,2.30
2018-08-11T23:09:56.723Z,2.10
2018-08-11T23:12:25.227Z,1.83
2018-08-11T23:14:53.726Z,2.10
2018-08-11T23:17:22.223Z,2.17
2018-08-11T23:19:50.735Z,2.00
2018-08-11T23:22:19.231Z,1.90
2018-08-11T23:24:47.750Z,2.13
2018-08-11T23:27:16.248Z,2.07
2018-08-11T23:29:44.752Z,1.90
2018-08-11T23:32:13.272Z,1.90
2018-08-11T23:34:41.776Z,1.70
2018-08-11T23:37:10.288Z,1.63
2018-08-11T23:39:38.787Z,1.87
2018-08-11T23:42:07.425Z,2.10
2018-08-11T23:44:35.951Z,2.13
2018-08-11T23:47:04.447Z,1.80
2018-08-11T23:49:32.951Z,1.93
2018-08-11T23:52:01.728Z,1.90
2018-08-11T23:54:30.231Z,1.90
2018-08-11T23:56:58.735Z,1.90
2018-08-11T23:59:27.240Z,2.10
